Hollandale, MS

10:05 AM CDT on July 12, 2014 (GMT -0500)
Mid Delta Regional (KGLH) Elev 131 ft | 33.48 °N, 90.99 °W | Change Station

Current weather conditions updated 12 minutes ago

Clear
Clear
84 °F
Feels Like 91 °F
N
0
Wind Variable Wind from North

Today is forecast to be Warmer than yesterday.

Today
High -- | Low -- °F
--% Chance of Precip.
Yesterday
High -- | Low -- °F
Precip. -- in
6:03 AM 8:14 PM
Full, 100% visible
Pressure 30.18 in
Visibility 10.0 miles
Clouds Clear
Heat Index 91 °F
Dew Point 74 °F
Humidity 72%
Rainfall 0.00 in
Snow Depth Not available.
UV 6 out of 12
Pollen 3.50 out of 12
Air Quality Not available.
Flu Activity No Activity
METAR KGLH 121453Z AUTO 00000KT 10SM CLR 29/23 A3017 RMK AO2 SLP220 T02890233 50004

More Conditions Fewer Conditions

Pressure 30.18 in
Visibility 10.0 miles
Clouds Clear
Heat Index 91 °F
Dew Point 74 °F
Humidity 72%
Rainfall 0.00 in
Snow Depth Not available.
UV 6 out of 12
Pollen 3.50 out of 12
Air Quality Not available.
Flu Activity No Activity
METAR KGLH 121453Z AUTO 00000KT 10SM CLR 29/23 A3017 RMK AO2 SLP220 T02890233 50004

More Conditions Fewer Conditions

10-Day Weather Forecast

Almanac

Astronomy

Jul. 12, 2014 Rise Set
Actual Time 6:03 AM CDT 8:14 PM CDT
Civil Twilight 5:35 AM CDT 8:42 PM CDT
Nautical Twilight 5:00 AM CDT 9:17 PM CDT
Astronomical Twilight 4:23 AM CDT 9:54 PM CDT
Moon 8:22 PM CDT 6:18 AM CDT
Length of Visible Light 15h 07m
Length of Day
14h 10m
Tomorrow will be 0m 56s shorter.
Full, 100% of the Moon is Illuminated
Today
Full
Jul 18
Last Quarter
Jul 26
New
Aug 3
First Quarter
Aug 10
Full

Today's Extremes

State Highs State Lows

Community

WunderPhotos

Upload Photos

1,732,848 photos uploaded!

WunderBlogs® & News

By Dr. Jeff Masters
Director of Meteorology, Weather Underground
By Kari Strenfel
Meteorologist, Weather Underground
By Christopher C. Burt
Weather Historian, Weather Underground
July 12, 2014
July 12, 2014
July 12, 2014

Nearby

Snow Depth

Station Depth Elevation
No new snow has been reported.

Earthquake Activity

City Distance Mag. Time & Date
No recent earthquake activity has been reported nearby.
Minimum magnitude displayed is 2.5.

Coastal Water Temperatures

Place Temperature
No Stations Reporting

Nearby Weather Stations

Station Location Temp. Heat Index Dew Point Humidity Wind Precip. Elev Updated Type
MesoWest NORTH ISSAQUENA , Glen Allan, MS 81 °F 88 °F 76 °F 86% NNW  at  1 mph 0.00 in / hr 111 ft 9:00 AM CDT MADIS
MesoWest BEASLEY LAKE , Inverness, MS 81 °F 88 °F 77 °F 87% NW  at  3 mph 0.00 in / hr 115 ft 9:00 AM CDT MADIS
MesoWest SILVER CITY , Silver City, MS 80 °F 85 °F 77 °F 89% NNW  at  3 mph 0.00 in / hr 115 ft 9:00 AM CDT MADIS

Show More Stations Show Fewer Stations